createdAt,value
2019-05-26T00:01:51.923Z,9.80
2019-05-26T00:04:18.625Z,9.70
2019-05-26T00:06:44.634Z,9.70
2019-05-26T00:09:10.606Z,9.70
2019-05-26T00:11:36.593Z,9.70
2019-05-26T00:14:02.581Z,9.70
2019-05-26T00:16:28.605Z,9.60
2019-05-26T00:18:54.583Z,9.60
2019-05-26T00:21:20.564Z,9.60
2019-05-26T00:23:46.578Z,9.70
2019-05-26T00:26:12.540Z,9.70
2019-05-26T00:28:38.554Z,9.70
2019-05-26T00:31:04.543Z,9.70
2019-05-26T00:33:30.556Z,9.70
2019-05-26T00:35:56.530Z,9.70
2019-05-26T00:38:22.576Z,9.80
2019-05-26T00:40:48.557Z,9.80
2019-05-26T00:43:14.559Z,9.80
2019-05-26T00:45:40.547Z,9.80
2019-05-26T00:48:06.557Z,9.80
2019-05-26T00:50:33.293Z,9.80
2019-05-26T00:52:59.554Z,9.70
2019-05-26T00:55:26.280Z,9.80
2019-05-26T00:57:52.283Z,9.80
2019-05-26T01:00:18.269Z,9.80
2019-05-26T01:02:44.258Z,9.90
2019-05-26T01:05:10.974Z,9.90
2019-05-26T01:07:37.009Z,9.80
2019-05-26T01:10:03.738Z,9.80
2019-05-26T01:12:29.767Z,9.80
2019-05-26T01:14:56.507Z,9.80
2019-05-26T01:17:22.505Z,9.80
2019-05-26T01:19:48.524Z,9.80
2019-05-26T01:22:14.520Z,9.80
2019-05-26T01:24:40.543Z,9.80
2019-05-26T01:27:06.535Z,9.80
2019-05-26T01:29:33.296Z,9.80
2019-05-26T01:32:00.019Z,9.80
2019-05-26T01:34:26.770Z,9.80
2019-05-26T01:36:53.478Z,9.90
2019-05-26T01:39:19.477Z,9.80
2019-05-26T01:41:45.460Z,9.80
2019-05-26T01:44:11.443Z,9.90
2019-05-26T01:46:37.418Z,9.90
2019-05-26T01:49:03.429Z,9.90
2019-05-26T01:51:30.161Z,9.80
2019-05-26T01:53:56.907Z,9.90
2019-05-26T01:56:25.028Z,9.90
2019-05-26T01:58:51.664Z,9.90
2019-05-26T02:01:17.661Z,9.90
2019-05-26T02:03:43.657Z,9.90
2019-05-26T02:06:10.384Z,10.00
2019-05-26T02:08:39.618Z,10.00
2019-05-26T02:11:02.418Z,10.00
2019-05-26T02:13:28.417Z,10.00
2019-05-26T02:15:54.407Z,10.10
2019-05-26T02:18:21.153Z,10.10
2019-05-26T02:20:47.202Z,10.10
2019-05-26T02:23:13.190Z,10.20
2019-05-26T02:25:39.911Z,10.30
2019-05-26T02:28:06.637Z,10.30
2019-05-26T02:30:32.651Z,10.30
2019-05-26T02:32:58.652Z,10.40
2019-05-26T02:35:24.680Z,10.40
2019-05-26T02:37:50.684Z,10.50
2019-05-26T02:40:16.699Z,10.50
2019-05-26T02:42:42.688Z,10.50
2019-05-26T02:45:09.456Z,10.60
2019-05-26T02:47:35.457Z,10.50
2019-05-26T02:50:02.225Z,10.50
2019-05-26T02:52:28.221Z,10.50
2019-05-26T02:54:54.236Z,10.50
2019-05-26T02:57:20.983Z,10.50
2019-05-26T02:59:46.971Z,10.50
2019-05-26T03:02:12.947Z,10.60
2019-05-26T03:04:39.697Z,10.50
2019-05-26T03:07:05.681Z,10.50
2019-05-26T03:09:31.699Z,10.60
2019-05-26T03:11:57.682Z,10.50
2019-05-26T03:14:23.697Z,10.50
2019-05-26T03:16:49.680Z,10.50
2019-05-26T03:19:16.434Z,10.50
2019-05-26T03:21:42.394Z,10.40
2019-05-26T03:24:08.410Z,10.50
2019-05-26T03:26:34.405Z,10.50
2019-05-26T03:29:01.151Z,10.40
2019-05-26T03:31:27.929Z,10.40
2019-05-26T03:33:53.953Z,10.40
2019-05-26T03:36:20.013Z,10.40
2019-05-26T03:38:46.787Z,10.50
2019-05-26T03:41:13.534Z,10.50
2019-05-26T03:43:39.527Z,10.50
2019-05-26T03:46:05.543Z,10.60
2019-05-26T03:48:31.543Z,10.70
2019-05-26T03:50:57.543Z,10.70
2019-05-26T03:53:23.523Z,10.70
2019-05-26T03:55:49.531Z,10.70
2019-05-26T03:58:15.514Z,10.80
2019-05-26T04:00:41.530Z,10.80
2019-05-26T04:03:07.545Z,10.90
2019-05-26T04:05:33.629Z,11.00
2019-05-26T04:08:04.313Z,11.10
2019-05-26T04:10:26.437Z,11.30
2019-05-26T04:12:52.438Z,11.30
2019-05-26T04:15:19.192Z,11.50
2019-05-26T04:17:45.188Z,11.50
2019-05-26T04:20:11.218Z,11.50
2019-05-26T04:22:37.206Z,11.60
2019-05-26T04:25:03.225Z,11.60
2019-05-26T04:27:29.198Z,11.60
2019-05-26T04:29:55.937Z,11.80
2019-05-26T04:32:21.971Z,11.80
2019-05-26T04:34:47.964Z,11.90
2019-05-26T04:37:13.957Z,12.00
2019-05-26T04:39:39.947Z,12.10
2019-05-26T04:42:06.691Z,12.40
2019-05-26T04:44:32.689Z,12.40
2019-05-26T04:46:58.684Z,12.60
2019-05-26T04:49:24.660Z,12.70
2019-05-26T04:51:51.379Z,13.00
2019-05-26T04:54:18.111Z,13.10
2019-05-26T04:56:44.107Z,13.10
2019-05-26T04:59:10.099Z,13.30
2019-05-26T05:01:36.112Z,13.40
2019-05-26T05:04:02.140Z,13.40
2019-05-26T05:06:28.162Z,13.50
2019-05-26T05:08:54.144Z,13.50
2019-05-26T05:11:20.158Z,13.50
2019-05-26T05:13:46.109Z,13.60
2019-05-26T05:16:12.853Z,13.50
2019-05-26T05:18:39.570Z,13.60
2019-05-26T05:21:06.334Z,13.80
2019-05-26T05:23:33.083Z,13.80
2019-05-26T05:25:59.819Z,13.90
2019-05-26T05:28:26.556Z,13.90
2019-05-26T05:30:53.279Z,13.90
2019-05-26T05:33:19.263Z,13.90
2019-05-26T05:35:45.253Z,13.90
2019-05-26T05:38:12.019Z,13.90
2019-05-26T05:40:37.982Z,13.80
2019-05-26T05:43:04.017Z,13.90
2019-05-26T05:45:30.032Z,13.90
2019-05-26T05:47:56.025Z,14.10
2019-05-26T05:50:22.030Z,14.20
2019-05-26T05:52:48.033Z,14.20
2019-05-26T05:55:14.770Z,14.20
2019-05-26T05:57:40.848Z,14.20
2019-05-26T06:00:06.938Z,14.20
2019-05-26T06:02:33.039Z,14.10
2019-05-26T06:04:59.756Z,14.10
2019-05-26T06:07:25.783Z,14.10
2019-05-26T06:09:51.779Z,14.10
2019-05-26T06:12:17.800Z,14.10
2019-05-26T06:14:43.805Z,14.20
2019-05-26T06:17:10.560Z,14.20
2019-05-26T06:19:35.822Z,14.30
2019-05-26T06:22:01.847Z,14.40
2019-05-26T06:24:28.581Z,14.70
2019-05-26T06:26:54.577Z,14.80
2019-05-26T06:29:20.576Z,14.90
2019-05-26T06:31:46.716Z,15.00
2019-05-26T06:34:12.686Z,15.20
2019-05-26T06:36:38.676Z,15.50
2019-05-26T06:39:04.674Z,15.70
2019-05-26T06:41:33.849Z,15.70
2019-05-26T06:43:57.518Z,15.80
2019-05-26T06:46:24.241Z,16.00
2019-05-26T06:48:50.997Z,16.10
2019-05-26T06:51:17.685Z,16.10
2019-05-26T06:53:43.688Z,16.00
2019-05-26T06:56:09.663Z,16.00
2019-05-26T06:58:36.402Z,16.10
2019-05-26T07:01:03.662Z,16.10
2019-05-26T07:03:29.289Z,16.10
2019-05-26T07:05:55.268Z,16.20
2019-05-26T07:08:21.318Z,16.30
2019-05-26T07:10:47.278Z,16.30
2019-05-26T07:13:13.265Z,16.20
2019-05-26T07:15:39.244Z,16.20
2019-05-26T07:18:05.230Z,16.20
2019-05-26T07:20:31.210Z,16.20
2019-05-26T07:22:57.210Z,16.20
2019-05-26T07:25:23.207Z,16.20
2019-05-26T07:27:49.211Z,16.20
2019-05-26T07:30:15.203Z,16.30
2019-05-26T07:32:41.979Z,16.40
2019-05-26T07:35:07.944Z,16.60
2019-05-26T07:37:33.958Z,16.80
2019-05-26T07:39:59.956Z,17.20
2019-05-26T07:42:26.677Z,17.90
2019-05-26T07:44:52.712Z,17.80
2019-05-26T07:47:18.757Z,18.10
2019-05-26T07:49:44.704Z,18.40
2019-05-26T07:52:10.683Z,18.10
2019-05-26T07:54:36.728Z,17.90
2019-05-26T07:57:02.720Z,18.00
2019-05-26T07:59:28.734Z,18.10
2019-05-26T08:01:55.466Z,17.90
2019-05-26T08:04:21.494Z,17.90
2019-05-26T08:06:48.275Z,17.70
2019-05-26T08:09:14.344Z,17.70
2019-05-26T08:11:40.353Z,17.90
2019-05-26T08:14:06.370Z,18.00
2019-05-26T08:16:32.362Z,18.10
2019-05-26T08:18:58.374Z,18.10
2019-05-26T08:21:25.114Z,18.90
2019-05-26T08:23:51.143Z,18.80
2019-05-26T08:26:17.131Z,19.70
2019-05-26T08:28:43.151Z,20.80
2019-05-26T08:31:09.162Z,21.70
2019-05-26T08:33:35.197Z,22.00
2019-05-26T08:36:01.170Z,22.40
2019-05-26T08:38:27.213Z,23.20
2019-05-26T08:40:53.212Z,24.40
2019-05-26T08:43:19.242Z,25.40
2019-05-26T08:45:45.309Z,26.60
2019-05-26T08:48:11.341Z,27.40
2019-05-26T08:50:37.357Z,28.20
2019-05-26T08:53:03.357Z,29.10
2019-05-26T08:55:29.339Z,29.70
2019-05-26T08:57:56.081Z,29.80
2019-05-26T09:00:22.837Z,28.20
2019-05-26T09:02:49.570Z,26.60
2019-05-26T09:05:15.575Z,26.60
2019-05-26T09:07:41.549Z,26.00
2019-05-26T09:10:07.596Z,25.40
2019-05-26T09:12:33.619Z,24.60
2019-05-26T09:14:59.624Z,24.40
2019-05-26T09:17:25.624Z,24.50
2019-05-26T09:19:51.643Z,25.70
2019-05-26T09:22:17.610Z,25.80
2019-05-26T09:24:43.617Z,25.70
2019-05-26T09:27:10.102Z,25.10
2019-05-26T09:29:36.663Z,25.00
2019-05-26T09:32:02.702Z,25.10
2019-05-26T09:34:29.118Z,24.50
2019-05-26T09:36:57.166Z,24.30
2019-05-26T09:39:22.181Z,24.80
2019-05-26T09:41:48.427Z,24.90
2019-05-26T09:44:15.854Z,24.20
2019-05-26T09:46:42.283Z,24.20
2019-05-26T09:49:09.221Z,23.30
2019-05-26T09:51:36.165Z,22.80
2019-05-26T09:54:02.432Z,22.80
2019-05-26T09:56:28.880Z,22.60
2019-05-26T09:58:55.339Z,22.40
2019-05-26T10:01:22.449Z,22.10
2019-05-26T10:03:48.657Z,22.00
2019-05-26T10:06:15.748Z,21.90
2019-05-26T10:08:41.862Z,21.90
2019-05-26T10:11:08.257Z,21.80
2019-05-26T10:13:34.804Z,21.80
2019-05-26T10:16:02.185Z,21.70
2019-05-26T10:18:28.272Z,21.70
2019-05-26T10:20:54.831Z,21.80
2019-05-26T10:23:21.605Z,22.10
2019-05-26T10:25:48.067Z,22.10
2019-05-26T10:28:14.928Z,22.10
2019-05-26T10:30:41.681Z,22.10
2019-05-26T10:33:07.627Z,22.10
2019-05-26T10:35:33.619Z,22.10
2019-05-26T10:38:00.399Z,22.30
2019-05-26T10:40:26.492Z,22.30
2019-05-26T10:42:53.207Z,22.50
2019-05-26T10:45:19.213Z,22.50
2019-05-26T10:47:45.208Z,22.30
2019-05-26T10:50:11.201Z,22.30
2019-05-26T10:52:37.964Z,22.30
2019-05-26T10:55:03.941Z,22.30
2019-05-26T10:57:29.947Z,22.70
2019-05-26T10:59:56.029Z,22.90
2019-05-26T11:02:22.056Z,23.40
2019-05-26T11:04:48.067Z,23.50
2019-05-26T11:07:14.085Z,23.50
2019-05-26T11:09:40.072Z,23.50
2019-05-26T11:12:06.100Z,23.60
2019-05-26T11:14:32.098Z,23.70
2019-05-26T11:16:58.908Z,23.70
2019-05-26T11:19:24.906Z,23.70
2019-05-26T11:21:50.943Z,23.60
2019-05-26T11:24:16.965Z,23.30
2019-05-26T11:26:43.732Z,23.40
2019-05-26T11:29:09.731Z,23.40
2019-05-26T11:31:36.510Z,23.70
2019-05-26T11:34:02.548Z,23.70
2019-05-26T11:36:28.538Z,23.90
2019-05-26T11:38:54.586Z,23.70
2019-05-26T11:41:20.578Z,23.90
2019-05-26T11:43:47.330Z,23.70
2019-05-26T11:46:16.435Z,23.70
2019-05-26T11:48:39.677Z,23.70
2019-05-26T11:51:05.478Z,23.60
2019-05-26T11:53:32.232Z,23.30
2019-05-26T11:55:58.953Z,23.20
2019-05-26T11:58:25.742Z,22.80
2019-05-26T12:00:51.722Z,22.80
2019-05-26T12:03:18.460Z,21.70
2019-05-26T12:05:44.607Z,21.60
2019-05-26T12:08:11.073Z,21.40
2019-05-26T12:10:37.053Z,21.10
2019-05-26T12:13:03.061Z,20.70
2019-05-26T12:15:29.039Z,20.50
2019-05-26T12:17:55.040Z,20.40
2019-05-26T12:20:21.765Z,20.70
2019-05-26T12:22:48.506Z,21.00
2019-05-26T12:25:15.241Z,21.50
2019-05-26T12:27:41.221Z,21.50
2019-05-26T12:30:07.225Z,21.70
2019-05-26T12:32:33.238Z,21.80
2019-05-26T12:34:59.254Z,22.00
2019-05-26T12:37:25.228Z,22.50
2019-05-26T12:39:51.226Z,22.70
2019-05-26T12:42:17.324Z,22.90
2019-05-26T12:44:49.477Z,23.10
2019-05-26T12:47:10.053Z,22.80
2019-05-26T12:49:36.062Z,22.80
2019-05-26T12:52:02.053Z,22.80
2019-05-26T12:54:28.109Z,22.80
2019-05-26T12:56:54.143Z,22.80
2019-05-26T12:59:20.137Z,22.80
2019-05-26T13:01:46.103Z,22.80
2019-05-26T13:04:12.893Z,22.80
2019-05-26T13:06:38.965Z,22.80
2019-05-26T13:09:04.950Z,22.80
2019-05-26T13:11:30.954Z,23.10
2019-05-26T13:13:56.954Z,23.30
2019-05-26T13:16:23.680Z,23.10
2019-05-26T13:18:49.676Z,23.10
2019-05-26T13:21:15.658Z,23.10
2019-05-26T13:23:41.664Z,23.20
2019-05-26T13:26:07.665Z,23.10
2019-05-26T13:28:33.643Z,22.90
2019-05-26T13:30:59.678Z,22.80
2019-05-26T13:33:25.652Z,22.60
2019-05-26T13:35:52.411Z,22.30
2019-05-26T13:38:18.422Z,22.30
2019-05-26T13:40:45.195Z,22.60
2019-05-26T13:43:11.166Z,22.60
2019-05-26T13:45:37.190Z,22.60
2019-05-26T13:48:03.939Z,22.10
2019-05-26T13:50:30.751Z,21.90
2019-05-26T13:52:56.730Z,21.90
2019-05-26T13:55:22.754Z,21.70
2019-05-26T13:57:49.744Z,21.60
2019-05-26T14:00:14.897Z,21.50
2019-05-26T14:02:40.893Z,21.50
2019-05-26T14:05:06.893Z,21.40
2019-05-26T14:07:32.839Z,21.30
2019-05-26T14:09:58.806Z,21.20
2019-05-26T14:12:24.772Z,21.40
2019-05-26T14:14:50.781Z,21.60
2019-05-26T14:17:17.646Z,21.70
2019-05-26T14:19:44.361Z,21.80
2019-05-26T14:22:10.473Z,21.90
2019-05-26T14:24:36.493Z,21.90
2019-05-26T14:27:02.541Z,22.10
2019-05-26T14:29:29.443Z,22.10
2019-05-26T14:31:55.488Z,22.00
2019-05-26T14:34:21.474Z,21.80
2019-05-26T14:36:48.203Z,21.50
2019-05-26T14:39:14.196Z,21.50
2019-05-26T14:41:40.242Z,21.30
2019-05-26T14:44:06.236Z,21.10
2019-05-26T14:46:32.274Z,21.00
2019-05-26T14:48:58.313Z,21.00
2019-05-26T14:51:24.420Z,21.00
2019-05-26T14:53:50.497Z,21.10
2019-05-26T14:56:16.631Z,20.90
2019-05-26T14:58:42.610Z,20.80
2019-05-26T15:01:08.650Z,20.50
2019-05-26T15:03:35.376Z,20.40
2019-05-26T15:06:06.079Z,20.30
2019-05-26T15:08:27.476Z,20.20
2019-05-26T15:10:54.296Z,20.10
2019-05-26T15:13:20.439Z,20.00
2019-05-26T15:15:46.459Z,19.90
2019-05-26T15:18:12.510Z,19.90
2019-05-26T15:20:38.592Z,19.80
2019-05-26T15:23:04.583Z,19.70
2019-05-26T15:25:30.634Z,19.60
2019-05-26T15:27:56.697Z,19.30
2019-05-26T15:30:22.720Z,19.20
2019-05-26T15:32:48.759Z,19.10
2019-05-26T15:35:14.829Z,19.10
2019-05-26T15:37:40.833Z,19.10
2019-05-26T15:40:06.872Z,19.20
2019-05-26T15:42:32.972Z,19.30
2019-05-26T15:44:58.985Z,19.10
2019-05-26T15:47:25.029Z,19.00
2019-05-26T15:49:51.043Z,18.80
2019-05-26T15:52:17.050Z,18.80
2019-05-26T15:54:43.075Z,18.60
2019-05-26T15:57:09.103Z,18.40
2019-05-26T15:59:35.353Z,18.40
2019-05-26T16:02:01.890Z,18.20
2019-05-26T16:04:27.866Z,18.10
2019-05-26T16:06:53.914Z,17.90
2019-05-26T16:09:19.946Z,17.80
2019-05-26T16:11:45.981Z,17.80
2019-05-26T16:14:12.006Z,17.70
2019-05-26T16:16:41.104Z,17.70
2019-05-26T16:19:04.099Z,17.90
2019-05-26T16:21:30.106Z,17.90
2019-05-26T16:23:56.870Z,18.20
2019-05-26T16:26:22.891Z,18.20
2019-05-26T16:28:48.932Z,18.20
2019-05-26T16:31:14.908Z,18.30
2019-05-26T16:33:41.675Z,18.60
2019-05-26T16:36:08.393Z,18.60
2019-05-26T16:38:35.163Z,18.60
2019-05-26T16:41:01.213Z,18.60
2019-05-26T16:43:27.244Z,18.70
2019-05-26T16:45:56.188Z,18.70
2019-05-26T16:48:19.341Z,18.70
2019-05-26T16:50:45.316Z,18.70
2019-05-26T16:53:11.378Z,18.70
2019-05-26T16:55:38.128Z,18.60
2019-05-26T16:58:06.629Z,18.60
2019-05-26T17:00:30.218Z,18.60
2019-05-26T17:02:56.255Z,18.50
2019-05-26T17:05:22.264Z,18.50
2019-05-26T17:07:50.461Z,18.50
2019-05-26T17:10:14.376Z,18.50
2019-05-26T17:12:41.131Z,18.40
2019-05-26T17:15:07.282Z,18.40
2019-05-26T17:17:33.387Z,18.40
2019-05-26T17:19:59.471Z,18.40
2019-05-26T17:22:26.335Z,18.40
2019-05-26T17:24:52.412Z,18.40
2019-05-26T17:27:19.332Z,18.40
2019-05-26T17:29:45.549Z,18.40
2019-05-26T17:32:12.124Z,18.30
2019-05-26T17:34:38.956Z,18.30
2019-05-26T17:37:04.979Z,18.30
2019-05-26T17:39:31.021Z,18.30
2019-05-26T17:41:57.095Z,18.30
2019-05-26T17:44:24.041Z,18.40
2019-05-26T17:46:53.679Z,18.40
2019-05-26T17:49:19.843Z,18.40
2019-05-26T17:51:47.023Z,18.40
2019-05-26T17:54:13.074Z,18.40
2019-05-26T17:56:39.117Z,18.50
2019-05-26T17:59:08.120Z,18.50
2019-05-26T18:01:43.073Z,18.50
2019-05-26T18:04:15.225Z,18.50
2019-05-26T18:06:41.312Z,18.60
2019-05-26T18:09:09.090Z,18.50
2019-05-26T18:11:36.448Z,18.70
2019-05-26T18:19:08.823Z,18.70
2019-05-26T18:21:39.247Z,18.70
2019-05-26T18:26:42.803Z,18.60
2019-05-26T18:29:08.849Z,18.60
2019-05-26T18:31:38.348Z,18.50
2019-05-26T18:34:05.168Z,18.50
2019-05-26T18:36:32.393Z,18.50
2019-05-26T18:39:03.800Z,18.40
2019-05-26T18:44:12.707Z,18.40
2019-05-26T18:46:38.886Z,18.30
2019-05-26T18:49:05.720Z,18.20
2019-05-26T18:56:38.142Z,18.00
2019-05-26T18:59:04.570Z,18.00
2019-05-26T19:01:35.313Z,17.80
2019-05-26T19:04:05.847Z,17.80
2019-05-26T19:06:35.030Z,17.80
2019-05-26T19:09:01.093Z,17.70
2019-05-26T19:11:27.182Z,17.60
2019-05-26T19:13:53.933Z,17.50
2019-05-26T19:16:19.957Z,17.50
2019-05-26T19:18:46.341Z,17.50
2019-05-26T19:21:13.386Z,17.40
2019-05-26T19:23:39.594Z,17.40
2019-05-26T19:26:07.061Z,17.30
2019-05-26T19:28:33.172Z,17.30
2019-05-26T19:30:59.259Z,17.20
2019-05-26T19:33:26.013Z,17.10
2019-05-26T19:35:52.810Z,17.00
2019-05-26T19:38:18.872Z,17.00
2019-05-26T19:40:44.892Z,17.00
2019-05-26T19:43:10.900Z,16.90
2019-05-26T19:45:37.075Z,16.90
2019-05-26T19:48:04.020Z,16.90
2019-05-26T19:50:30.240Z,16.90
2019-05-26T19:52:56.495Z,16.80
2019-05-26T19:55:22.698Z,16.80
2019-05-26T19:57:48.848Z,16.80
2019-05-26T20:00:16.038Z,16.70
2019-05-26T20:02:46.022Z,16.70
2019-05-26T20:05:13.623Z,16.60
2019-05-26T20:07:39.909Z,17.50
2019-05-26T20:10:05.983Z,16.50
2019-05-26T20:12:32.076Z,16.40
2019-05-26T20:14:58.108Z,16.30
2019-05-26T20:17:24.123Z,16.20
2019-05-26T20:19:50.127Z,16.10
2019-05-26T20:22:16.158Z,16.10
2019-05-26T20:24:42.172Z,15.90
2019-05-26T20:27:08.246Z,15.90
2019-05-26T20:29:34.231Z,15.90
2019-05-26T20:32:00.272Z,15.80
2019-05-26T20:34:26.267Z,15.70
2019-05-26T20:36:52.300Z,15.70
2019-05-26T20:39:18.339Z,15.70
2019-05-26T20:41:44.373Z,15.60
2019-05-26T20:44:11.477Z,15.70
2019-05-26T20:46:37.906Z,15.60
2019-05-26T20:49:03.975Z,15.50
2019-05-26T20:51:29.994Z,15.50
2019-05-26T20:53:56.017Z,15.50
2019-05-26T20:56:22.023Z,15.50
2019-05-26T20:58:48.018Z,15.50
2019-05-26T21:01:14.740Z,15.40
2019-05-26T21:03:41.723Z,15.40
2019-05-26T21:06:07.910Z,15.40
2019-05-26T21:08:34.115Z,15.50
2019-05-26T21:11:00.130Z,15.40
2019-05-26T21:13:26.144Z,15.40
2019-05-26T21:15:52.139Z,15.30
2019-05-26T21:18:19.135Z,15.30
2019-05-26T21:20:45.144Z,15.30
2019-05-26T21:23:11.154Z,15.30
2019-05-26T21:25:37.138Z,15.30
2019-05-26T21:28:03.141Z,15.20
2019-05-26T21:30:29.149Z,15.20
2019-05-26T21:32:55.172Z,15.20
2019-05-26T21:35:21.165Z,15.10
2019-05-26T21:37:47.167Z,15.10
2019-05-26T21:40:13.891Z,15.10
2019-05-26T21:42:39.907Z,15.10
2019-05-26T21:45:05.868Z,15.10
2019-05-26T21:47:31.861Z,15.10
2019-05-26T21:49:57.840Z,15.00
2019-05-26T21:52:23.809Z,15.00
2019-05-26T21:54:49.799Z,15.00
2019-05-26T21:57:15.773Z,15.00
2019-05-26T21:59:42.513Z,14.90
2019-05-26T22:02:09.234Z,14.90
2019-05-26T22:04:35.223Z,14.90
2019-05-26T22:07:01.222Z,14.90
2019-05-26T22:09:27.222Z,14.90
2019-05-26T22:11:53.937Z,14.90
2019-05-26T22:14:19.939Z,14.90
2019-05-26T22:16:45.907Z,14.90
2019-05-26T22:19:12.626Z,14.80
2019-05-26T22:21:38.613Z,14.80
2019-05-26T22:24:04.660Z,14.80
2019-05-26T22:26:31.391Z,14.80
2019-05-26T22:28:57.412Z,14.80
2019-05-26T22:31:23.511Z,14.70
2019-05-26T22:33:49.520Z,14.80
2019-05-26T22:36:15.500Z,14.70
2019-05-26T22:38:41.495Z,14.70
2019-05-26T22:41:07.520Z,14.80
2019-05-26T22:43:33.489Z,14.80
2019-05-26T22:45:59.481Z,14.80
2019-05-26T22:48:25.468Z,14.80
2019-05-26T22:50:51.520Z,14.80
2019-05-26T22:53:17.522Z,14.80
2019-05-26T22:55:43.514Z,14.70
2019-05-26T22:58:10.222Z,14.70
2019-05-26T23:00:36.232Z,14.60
2019-05-26T23:03:02.247Z,14.60
2019-05-26T23:05:28.259Z,14.60
2019-05-26T23:07:54.235Z,14.60
2019-05-26T23:10:20.230Z,14.60
2019-05-26T23:12:46.199Z,14.70
2019-05-26T23:15:12.941Z,14.60
2019-05-26T23:17:38.946Z,14.60
2019-05-26T23:20:04.937Z,14.60
2019-05-26T23:22:30.925Z,14.60
2019-05-26T23:24:56.964Z,14.60
2019-05-26T23:27:22.938Z,14.60
2019-05-26T23:29:48.897Z,14.50
2019-05-26T23:32:14.905Z,14.50
2019-05-26T23:34:40.921Z,14.60
2019-05-26T23:37:06.907Z,14.50
2019-05-26T23:39:32.852Z,14.50
2019-05-26T23:41:58.852Z,14.50
2019-05-26T23:44:24.882Z,14.50
2019-05-26T23:46:50.887Z,14.50
2019-05-26T23:49:16.849Z,14.50
2019-05-26T23:51:42.812Z,14.50
2019-05-26T23:54:08.783Z,14.60
2019-05-26T23:56:34.767Z,14.40
2019-05-26T23:59:00.744Z,14.50
